Time;durP1;ratioP1;P1;durP2;ratioP2;P2;SDS_P1;SDS_P2;PMS_P1;PMS_P2;Temp;Humidity;BMP_temperature;BMP_pressure;BME280_temperature;BME280_humidity;BME280_pressure;Samples;Min_cycle;Max_cycle;Signal;HPM_P1;HPM_P2
2021/09/22 00:01:03;;;;;;;5.60;2.33;;;;;;;;;;5114699;28;20031;-63
2021/09/22 00:03:29;;;;;;;5.38;2.50;;;;;;;;;;5111354;28;20043;-62
2021/09/22 00:05:55;;;;;;;4.90;2.40;;;;;;;;;;5110800;28;20475;-63
2021/09/22 00:08:21;;;;;;;4.70;2.70;;;;;;;;;;5110912;28;20140;-63
2021/09/22 00:10:47;;;;;;;4.05;2.33;;;;;;;;;;5110767;28;20024;-63
2021/09/22 00:13:13;;;;;;;5.53;2.40;;;;;;;;;;5111627;28;20065;-63
2021/09/22 00:15:39;;;;;;;6.78;2.28;;;;;;;;;;5111810;28;20067;-63
2021/09/22 00:18:05;;;;;;;6.05;2.55;;;;;;;;;;5111036;28;20030;-63
2021/09/22 00:20:32;;;;;;;6.20;2.22;;;;;;;;;;5110879;28;20085;-63
2021/09/22 00:22:58;;;;;;;5.60;2.30;;;;;;;;;;5110745;28;20011;-64
2021/09/22 00:25:25;;;;;;;70.32;2.67;;;;;;;;;;5111992;28;20028;-63
2021/09/22 00:27:51;;;;;;;2.58;1.60;;;;;;;;;;5112567;28;20043;-63
2021/09/22 00:30:17;;;;;;;3.22;2.13;;;;;;;;;;5110283;28;20467;-63
2021/09/22 00:32:46;;;;;;;3.92;2.00;;;;;;;;;;5110537;28;20031;-63
2021/09/22 00:35:12;;;;;;;3.55;2.35;;;;;;;;;;5110292;28;20023;-63
2021/09/22 00:37:38;;;;;;;4.63;2.20;;;;;;;;;;5112246;28;20099;-63
2021/09/22 00:40:05;;;;;;;4.32;2.70;;;;;;;;;;5113763;28;20435;-63
2021/09/22 00:42:31;;;;;;;9.15;2.90;;;;;;;;;;5112193;28;20039;-63
2021/09/22 00:44:59;;;;;;;6.20;2.80;;;;;;;;;;5109919;28;20031;-63
2021/09/22 00:47:26;;;;;;;4.97;2.80;;;;;;;;;;5104198;28;20032;-63
2021/09/22 00:49:52;;;;;;;5.03;2.38;;;;;;;;;;5110006;28;20028;-63
2021/09/22 00:52:18;;;;;;;3.53;2.00;;;;;;;;;;5112695;28;20069;-63
2021/09/22 00:54:45;;;;;;;5.00;2.20;;;;;;;;;;5110948;28;20074;-62
2021/09/22 00:57:11;;;;;;;7.28;2.42;;;;;;;;;;5104365;28;20027;-63
2021/09/22 00:59:37;;;;;;;5.18;2.28;;;;;;;;;;5108595;28;20156;-62
2021/09/22 01:02:04;;;;;;;5.60;2.22;;;;;;;;;;5109990;28;20047;-63
2021/09/22 01:04:30;;;;;;;5.20;2.40;;;;;;;;;;5111187;28;20078;-63
2021/09/22 01:06:56;;;;;;;4.85;2.33;;;;;;;;;;5112788;28;20519;-63
2021/09/22 01:09:23;;;;;;;4.80;2.80;;;;;;;;;;5109444;28;20042;-62
2021/09/22 01:11:48;;;;;;;6.15;2.80;;;;;;;;;;5109967;28;20057;-62
2021/09/22 01:14:15;;;;;;;6.22;2.53;;;;;;;;;;5109716;28;20039;-63
2021/09/22 01:16:45;;;;;;;3.83;2.50;;;;;;;;;;5108948;28;20024;-63
2021/09/22 01:19:11;;;;;;;4.93;2.28;;;;;;;;;;5112628;28;20513;-63
2021/09/22 01:21:37;;;;;;;3.58;2.30;;;;;;;;;;5112135;28;20020;-62
2021/09/22 01:24:03;;;;;;;4.25;2.22;;;;;;;;;;5109130;28;20118;-63
2021/09/22 01:26:32;;;;;;;4.70;2.55;;;;;;;;;;5109689;28;20125;-62
2021/09/22 01:28:58;;;;;;;8.48;2.83;;;;;;;;;;5109177;28;20044;-63
2021/09/22 01:31:24;;;;;;;5.85;2.20;;;;;;;;;;5110658;28;20019;-63
2021/09/22 01:33:50;;;;;;;4.00;2.38;;;;;;;;;;5111476;28;20069;-63
2021/09/22 01:36:17;;;;;;;7.38;3.10;;;;;;;;;;5109472;28;20035;-63
2021/09/22 01:38:43;;;;;;;7.00;2.85;;;;;;;;;;5108951;28;20102;-63
2021/09/22 01:41:10;;;;;;;7.00;3.25;;;;;;;;;;5109069;28;20028;-63
2021/09/22 01:43:37;;;;;;;5.78;2.90;;;;;;;;;;5109519;28;20024;-63
2021/09/22 01:46:04;;;;;;;5.00;2.53;;;;;;;;;;5108721;28;20022;-63
2021/09/22 01:48:30;;;;;;;4.88;2.80;;;;;;;;;;5109466;28;20031;-63
2021/09/22 01:50:57;;;;;;;6.03;3.95;;;;;;;;;;5108976;28;20475;-63
2021/09/22 01:53:23;;;;;;;4.55;2.80;;;;;;;;;;5108486;28;20056;-63
2021/09/22 01:55:52;;;;;;;4.45;2.75;;;;;;;;;;5108986;28;20425;-63
2021/09/22 01:58:18;;;;;;;5.63;2.53;;;;;;;;;;5111607;28;20016;-63
2021/09/22 02:00:44;;;;;;;4.95;2.80;;;;;;;;;;5110324;28;20027;-63
2021/09/22 02:03:11;;;;;;;5.95;2.50;;;;;;;;;;5108882;28;20050;-63
2021/09/22 02:05:37;;;;;;;4.05;2.55;;;;;;;;;;5108590;28;20055;-63
2021/09/22 02:08:03;;;;;;;5.47;2.60;;;;;;;;;;5108222;28;20027;-63
2021/09/22 02:10:30;;;;;;;3.45;2.40;;;;;;;;;;5109642;28;20103;-63
2021/09/22 02:12:56;;;;;;;5.15;2.40;;;;;;;;;;5111264;28;20036;-62
2021/09/22 02:15:22;;;;;;;4.90;2.40;;;;;;;;;;5108703;28;20383;-63
2021/09/22 02:17:48;;;;;;;10.82;2.53;;;;;;;;;;5108773;28;20034;-63
2021/09/22 02:20:14;;;;;;;5.22;2.70;;;;;;;;;;5108678;28;20038;-63
2021/09/22 02:22:41;;;;;;;10.38;2.80;;;;;;;;;;5108392;28;20498;-63
2021/09/22 02:25:08;;;;;;;5.07;2.72;;;;;;;;;;5110691;28;20483;-63
2021/09/22 02:27:34;;;;;;;5.80;2.50;;;;;;;;;;5108906;28;20048;-63
2021/09/22 02:30:01;;;;;;;4.32;2.53;;;;;;;;;;5108556;28;20096;-63
2021/09/22 02:32:27;;;;;;;4.75;2.67;;;;;;;;;;5108609;28;20138;-63
2021/09/22 02:34:53;;;;;;;6.68;2.40;;;;;;;;;;5108156;28;20099;-62
2021/09/22 02:37:19;;;;;;;5.15;2.35;;;;;;;;;;5111034;28;20488;-63
2021/09/22 02:39:45;;;;;;;4.47;2.30;;;;;;;;;;5109487;28;20487;-63
2021/09/22 02:42:11;;;;;;;4.22;2.58;;;;;;;;;;5108417;28;20045;-63
2021/09/22 02:44:37;;;;;;;6.25;2.90;;;;;;;;;;5108115;28;20076;-62
2021/09/22 02:47:03;;;;;;;7.03;2.58;;;;;;;;;;5108197;28;20395;-63
2021/09/22 02:49:29;;;;;;;5.88;2.38;;;;;;;;;;5109099;28;20024;-62
2021/09/22 02:51:55;;;;;;;3.28;2.03;;;;;;;;;;5111160;28;20534;-63
2021/09/22 02:54:21;;;;;;;3.45;2.35;;;;;;;;;;5108072;28;20032;-63
2021/09/22 02:56:47;;;;;;;8.18;2.80;;;;;;;;;;5108343;28;20028;-63
2021/09/22 02:59:13;;;;;;;4.68;2.65;;;;;;;;;;5108581;28;20027;-63
2021/09/22 03:01:39;;;;;;;5.15;2.83;;;;;;;;;;5108426;28;20541;-63
2021/09/22 03:04:05;;;;;;;5.85;2.80;;;;;;;;;;5111318;28;20020;-63
2021/09/22 03:06:31;;;;;;;10.38;3.10;;;;;;;;;;5110092;28;20031;-63
2021/09/22 03:08:57;;;;;;;5.85;2.38;;;;;;;;;;5107966;28;20074;-62
2021/09/22 03:11:23;;;;;;;7.30;2.78;;;;;;;;;;5102578;28;20471;-63
2021/09/22 03:13:49;;;;;;;5.63;2.42;;;;;;;;;;5108018;28;20032;-63
2021/09/22 03:16:15;;;;;;;4.85;2.67;;;;;;;;;;5110119;28;20031;-63
2021/09/22 03:18:41;;;;;;;10.40;5.18;;;;;;;;;;5109332;28;20023;-63
2021/09/22 03:21:07;;;;;;;6.28;2.90;;;;;;;;;;5107969;28;20053;-62
2021/09/22 03:23:33;;;;;;;3.75;2.42;;;;;;;;;;5105718;28;20106;-63
2021/09/22 03:25:59;;;;;;;6.28;2.40;;;;;;;;;;5111701;28;20057;-63
2021/09/22 03:28:25;;;;;;;4.07;2.60;;;;;;;;;;5113184;28;20135;-63
2021/09/22 03:30:51;;;;;;;11.05;3.30;;;;;;;;;;5113349;28;20123;-63
2021/09/22 03:33:17;;;;;;;8.50;3.05;;;;;;;;;;5111447;28;20049;-63
2021/09/22 03:35:44;;;;;;;4.13;2.50;;;;;;;;;;5111230;28;20450;-63
2021/09/22 03:38:10;;;;;;;13.65;2.90;;;;;;;;;;5110893;28;20381;-63
2021/09/22 03:40:36;;;;;;;5.15;2.67;;;;;;;;;;5104494;28;20032;-63
2021/09/22 03:43:03;;;;;;;6.05;2.20;;;;;;;;;;5109186;28;20012;-63
2021/09/22 03:45:29;;;;;;;4.47;2.60;;;;;;;;;;5108297;28;20024;-63
2021/09/22 03:47:55;;;;;;;5.75;2.20;;;;;;;;;;5107689;28;20027;-62
2021/09/22 03:50:21;;;;;;;4.97;2.28;;;;;;;;;;5106630;28;20054;-63
2021/09/22 03:52:47;;;;;;;5.30;2.38;;;;;;;;;;5111330;28;20032;-63
2021/09/22 03:55:13;;;;;;;6.82;2.20;;;;;;;;;;5114086;28;20023;-63
2021/09/22 03:57:40;;;;;;;4.13;2.30;;;;;;;;;;5112407;28;20517;-63
2021/09/22 04:00:06;;;;;;;3.40;2.42;;;;;;;;;;5110694;28;20137;-63
2021/09/22 04:02:32;;;;;;;4.97;2.28;;;;;;;;;;5110702;28;20447;-63
2021/09/22 04:04:58;;;;;;;5.78;2.22;;;;;;;;;;5111112;28;20494;-63
2021/09/22 04:07:24;;;;;;;2.92;2.00;;;;;;;;;;5113110;28;20023;-63
2021/09/22 04:09:50;;;;;;;6.68;2.13;;;;;;;;;;5112930;28;20361;-63
2021/09/22 04:12:16;;;;;;;6.00;2.28;;;;;;;;;;5111187;28;20035;-63
2021/09/22 04:14:42;;;;;;;10.13;2.80;;;;;;;;;;5110786;28;20036;-63
2021/09/22 04:17:08;;;;;;;3.95;2.40;;;;;;;;;;5110480;28;20028;-63
2021/09/22 04:19:34;;;;;;;6.95;2.65;;;;;;;;;;5111548;28;20032;-63
2021/09/22 04:22:01;;;;;;;3.13;2.15;;;;;;;;;;5114305;28;20020;-63
2021/09/22 04:24:27;;;;;;;4.60;2.20;;;;;;;;;;5110836;28;20027;-63
2021/09/22 04:26:53;;;;;;;5.22;1.88;;;;;;;;;;5110383;28;20368;-63
2021/09/22 04:29:19;;;;;;;3.15;2.30;;;;;;;;;;5110416;28;20088;-63
2021/09/22 04:31:45;;;;;;;5.28;2.22;;;;;;;;;;5110380;28;20024;-63
2021/09/22 04:34:11;;;;;;;4.30;2.10;;;;;;;;;;5113043;28;20063;-63
2021/09/22 04:36:37;;;;;;;4.93;1.83;;;;;;;;;;5111269;28;20051;-63
2021/09/22 04:39:04;;;;;;;3.15;1.95;;;;;;;;;;5109746;28;20037;-63
2021/09/22 04:41:30;;;;;;;7.13;1.92;;;;;;;;;;5110497;28;20084;-63
2021/09/22 04:43:56;;;;;;;3.78;2.13;;;;;;;;;;5110482;28;20036;-63
2021/09/22 04:46:22;;;;;;;3.97;1.80;;;;;;;;;;5111882;28;20020;-63
2021/09/22 04:48:48;;;;;;;2.50;1.63;;;;;;;;;;5111605;28;20055;-63
2021/09/22 04:51:14;;;;;;;5.07;1.77;;;;;;;;;;5110624;28;20031;-63
2021/09/22 04:53:40;;;;;;;3.83;1.80;;;;;;;;;;5110424;28;20028;-63
2021/09/22 04:56:07;;;;;;;3.22;2.10;;;;;;;;;;5110590;28;20023;-63
2021/09/22 04:58:33;;;;;;;8.45;1.98;;;;;;;;;;5110709;28;20036;-63
2021/09/22 05:01:01;;;;;;;4.82;2.13;;;;;;;;;;5112799;28;20031;-63
2021/09/22 05:03:28;;;;;;;4.50;2.20;;;;;;;;;;5110080;28;20055;-64
2021/09/22 05:05:54;;;;;;;6.00;1.98;;;;;;;;;;5110289;28;20019;-70
2021/09/22 05:08:20;;;;;;;4.32;1.67;;;;;;;;;;5109811;28;20498;-69
2021/09/22 05:10:46;;;;;;;4.80;1.98;;;;;;;;;;5105538;28;20027;-68
2021/09/22 05:13:12;;;;;;;4.03;1.88;;;;;;;;;;5103715;28;20031;-68
2021/09/22 05:15:38;;;;;;;4.45;1.60;;;;;;;;;;5100038;28;20024;-70
2021/09/22 05:18:04;;;;;;;4.15;1.42;;;;;;;;;;5106072;28;20589;-69
2021/09/22 05:20:30;;;;;;;3.75;1.60;;;;;;;;;;5109012;28;20023;-69
2021/09/22 05:22:56;;;;;;;2.38;1.35;;;;;;;;;;5105500;28;20601;-69
2021/09/22 05:25:22;;;;;;;8.00;1.63;;;;;;;;;;5111648;28;20051;-69
2021/09/22 05:27:48;;;;;;;6.15;2.03;;;;;;;;;;5111145;28;20120;-69
2021/09/22 05:30:14;;;;;;;6.13;1.77;;;;;;;;;;5109568;28;20074;-69
2021/09/22 05:32:41;;;;;;;3.63;2.00;;;;;;;;;;5108806;28;20485;-71
2021/09/22 05:35:07;;;;;;;3.83;1.90;;;;;;;;;;5108293;28;20035;-71
2021/09/22 05:37:33;;;;;;;4.70;1.77;;;;;;;;;;5092926;28;20386;-67
2021/09/22 05:40:00;;;;;;;3.00;1.52;;;;;;;;;;5111139;28;20030;-69
2021/09/22 05:42:28;;;;;;;4.25;1.70;;;;;;;;;;5101734;28;20024;-69
2021/09/22 05:44:54;;;;;;;2.90;1.50;;;;;;;;;;5102135;28;20027;-69
2021/09/22 05:47:20;;;;;;;4.10;1.40;;;;;;;;;;5105369;28;20023;-69
2021/09/22 05:49:46;;;;;;;3.47;1.40;;;;;;;;;;5105984;28;20054;-69
2021/09/22 05:52:12;;;;;;;4.45;1.70;;;;;;;;;;5110404;28;20573;-69
2021/09/22 05:54:38;;;;;;;2.05;1.40;;;;;;;;;;5109573;28;20074;-69
2021/09/22 05:57:04;;;;;;;3.47;1.25;;;;;;;;;;5108207;28;20026;-69
2021/09/22 05:59:30;;;;;;;1.95;1.40;;;;;;;;;;5108921;28;20024;-69
2021/09/22 06:01:57;;;;;;;4.03;1.60;;;;;;;;;;5108850;28;20028;-69
2021/09/22 06:04:23;;;;;;;5.72;1.50;;;;;;;;;;5110799;28;20027;-69
2021/09/22 06:06:49;;;;;;;4.05;1.67;;;;;;;;;;5110407;28;20574;-69
2021/09/22 06:09:15;;;;;;;4.90;1.60;;;;;;;;;;5108017;28;20035;-69
2021/09/22 06:11:41;;;;;;;3.47;1.70;;;;;;;;;;5108670;28;20034;-69
2021/09/22 06:14:07;;;;;;;6.03;1.80;;;;;;;;;;5108743;28;20023;-70
2021/09/22 06:16:33;;;;;;;2.42;1.60;;;;;;;;;;5107924;28;20028;-69
2021/09/22 06:19:01;;;;;;;2.88;1.60;;;;;;;;;;5112108;28;20019;-69
2021/09/22 06:21:27;;;;;;;3.38;1.60;;;;;;;;;;5106936;28;20378;-69
2021/09/22 06:23:53;;;;;;;8.77;1.65;;;;;;;;;;5107385;28;20356;-69
2021/09/22 06:26:21;;;;;;;3.75;1.50;;;;;;;;;;5106717;28;20390;-69
2021/09/22 06:28:47;;;;;;;4.35;1.70;;;;;;;;;;5106304;28;20040;-69
2021/09/22 06:31:13;;;;;;;1.98;1.50;;;;;;;;;;5109384;28;20098;-69
2021/09/22 06:33:39;;;;;;;4.53;1.48;;;;;;;;;;5108672;28;20498;-70
2021/09/22 06:36:05;;;;;;;1.52;1.10;;;;;;;;;;5106873;28;20032;-70
2021/09/22 06:38:31;;;;;;;4.88;1.27;;;;;;;;;;5108454;28;20502;-69
2021/09/22 06:40:57;;;;;;;6.78;1.60;;;;;;;;;;5107856;28;20028;-69
2021/09/22 06:43:23;;;;;;;4.18;1.30;;;;;;;;;;5110600;28;20020;-70
2021/09/22 06:45:49;;;;;;;4.78;1.50;;;;;;;;;;5110180;28;20032;-71
2021/09/22 06:48:16;;;;;;;3.88;1.20;;;;;;;;;;5108259;28;20108;-70
2021/09/22 06:50:42;;;;;;;3.67;1.30;;;;;;;;;;5108407;28;20031;-70
2021/09/22 06:53:08;;;;;;;2.38;1.20;;;;;;;;;;5105851;28;20071;-71
2021/09/22 06:55:34;;;;;;;3.05;1.10;;;;;;;;;;5101275;28;20055;-70
2021/09/22 06:58:01;;;;;;;7.03;1.33;;;;;;;;;;5106144;28;20490;-70
2021/09/22 07:00:27;;;;;;;1.60;0.90;;;;;;;;;;5107051;28;20080;-71
2021/09/22 07:02:53;;;;;;;3.65;1.25;;;;;;;;;;5111728;28;20387;-70
2021/09/22 07:05:19;;;;;;;3.95;2.17;;;;;;;;;;5106389;28;20156;-71
2021/09/22 07:07:48;;;;;;;1.65;0.95;;;;;;;;;;5111784;28;20035;-72
2021/09/22 07:10:15;;;;;;;2.90;1.23;;;;;;;;;;5114216;28;20102;-71
2021/09/22 07:12:41;;;;;;;4.55;1.23;;;;;;;;;;5106151;28;20031;-71
2021/09/22 07:15:08;;;;;;;2.05;1.20;;;;;;;;;;5106963;28;20028;-72
2021/09/22 07:17:34;;;;;;;3.80;1.27;;;;;;;;;;5104413;28;20016;-72
2021/09/22 07:20:00;;;;;;;1.60;1.00;;;;;;;;;;5111972;28;20103;-72
2021/09/22 07:22:26;;;;;;;5.38;2.00;;;;;;;;;;5106922;28;20028;-72
2021/09/22 07:24:52;;;;;;;2.45;1.13;;;;;;;;;;5104962;28;20077;-69
2021/09/22 07:27:18;;;;;;;2.78;0.80;;;;;;;;;;5105741;28;20048;-71
2021/09/22 07:29:44;;;;;;;1.70;0.90;;;;;;;;;;5104929;28;20064;-71
2021/09/22 07:32:10;;;;;;;3.75;0.88;;;;;;;;;;5100800;28;20030;-71
2021/09/22 07:34:37;;;;;;;2.85;1.00;;;;;;;;;;5110939;28;20461;-71
2021/09/22 07:37:07;;;;;;;3.50;0.90;;;;;;;;;;5099689;28;20380;-69
2021/09/22 07:39:34;;;;;;;1.48;0.85;;;;;;;;;;5113747;28;20070;-70
2021/09/22 07:42:00;;;;;;;5.03;1.00;;;;;;;;;;5112002;28;20028;-67
2021/09/22 07:44:26;;;;;;;1.48;0.85;;;;;;;;;;5110623;28;20429;-72
2021/09/22 07:46:52;;;;;;;3.20;0.90;;;;;;;;;;5111014;28;20025;-73
2021/09/22 07:49:18;;;;;;;1.90;0.70;;;;;;;;;;5112431;28;20031;-71
2021/09/22 07:51:44;;;;;;;2.30;0.88;;;;;;;;;;5112578;28;20375;-71
2021/09/22 07:54:10;;;;;;;3.65;1.10;;;;;;;;;;5111059;28;20035;-72
2021/09/22 07:56:36;;;;;;;2.33;0.80;;;;;;;;;;5105633;28;20432;-72
2021/09/22 07:59:02;;;;;;;1.30;0.70;;;;;;;;;;5110997;28;20028;-71
2021/09/22 08:01:28;;;;;;;1.77;0.82;;;;;;;;;;5112110;28;20036;-72
2021/09/22 08:03:54;;;;;;;1.23;0.80;;;;;;;;;;5114145;28;20035;-71
2021/09/22 08:06:20;;;;;;;3.22;1.00;;;;;;;;;;5111405;28;20035;-72
2021/09/22 08:08:46;;;;;;;1.30;0.82;;;;;;;;;;5110150;28;20031;-75
2021/09/22 08:11:12;;;;;;;1.55;0.75;;;;;;;;;;5105292;28;20032;-72
2021/09/22 08:13:39;;;;;;;1.73;0.90;;;;;;;;;;5109746;28;20142;-68
2021/09/22 08:16:05;;;;;;;2.40;0.90;;;;;;;;;;5113672;28;20031;-76
2021/09/22 08:18:31;;;;;;;2.58;0.82;;;;;;;;;;5110946;28;20386;-73
2021/09/22 08:20:57;;;;;;;4.78;0.90;;;;;;;;;;5111160;28;20066;-75
2021/09/22 08:23:23;;;;;;;1.42;0.73;;;;;;;;;;5110652;28;20046;-72
2021/09/22 08:25:50;;;;;;;2.08;0.80;;;;;;;;;;5110536;28;20027;-76
2021/09/22 08:28:16;;;;;;;5.78;0.90;;;;;;;;;;5113333;28;20048;-73
2021/09/22 08:30:42;;;;;;;4.03;0.80;;;;;;;;;;5111606;28;20080;-72
2021/09/22 08:33:08;;;;;;;3.00;0.70;;;;;;;;;;5110522;28;20102;-71
2021/09/22 08:35:34;;;;;;;1.67;0.90;;;;;;;;;;5110775;28;20050;-72
2021/09/22 08:38:01;;;;;;;1.17;0.80;;;;;;;;;;5109966;28;20035;-72
2021/09/22 08:40:28;;;;;;;1.55;0.73;;;;;;;;;;5112167;28;20073;-71
2021/09/22 08:42:54;;;;;;;0.63;0.60;;;;;;;;;;5112674;28;20023;-73
2021/09/22 08:45:20;;;;;;;4.72;1.02;;;;;;;;;;5104800;28;20439;-71
2021/09/22 08:47:47;;;;;;;1.88;0.70;;;;;;;;;;5101553;28;20034;-73
2021/09/22 08:50:14;;;;;;;1.43;0.83;;;;;;;;;;5092512;28;20474;-73
2021/09/22 08:52:40;;;;;;;1.73;0.80;;;;;;;;;;5109113;28;20066;-74
2021/09/22 08:55:07;;;;;;;1.60;0.80;;;;;;;;;;5107074;28;20579;-75
2021/09/22 08:57:33;;;;;;;2.75;0.73;;;;;;;;;;5110382;28;20356;-75
2021/09/22 08:59:59;;;;;;;4.43;1.00;;;;;;;;;;5111105;28;20035;-75
2021/09/22 09:02:25;;;;;;;1.33;0.88;;;;;;;;;;5110247;28;20028;-75
2021/09/22 09:05:11;;;;;;;1.75;0.90;;;;;;;;;;5109033;28;20028;-73
2021/09/22 09:07:54;;;;;;;6.55;0.88;;;;;;;;;;5109817;28;20059;-75
2021/09/22 09:10:22;;;;;;;2.92;0.90;;;;;;;;;;5112283;28;20034;-76
2021/09/22 09:13:05;;;;;;;2.95;0.85;;;;;;;;;;5110916;28;20143;-76
2021/09/22 09:15:41;;;;;;;1.67;0.77;;;;;;;;;;5110127;28;20483;-75
2021/09/22 09:18:19;;;;;;;3.17;0.90;;;;;;;;;;5105351;28;20141;-69
2021/09/22 09:20:49;;;;;;;1.25;0.75;;;;;;;;;;5101523;28;20028;-69
2021/09/22 09:23:17;;;;;;;0.98;0.70;;;;;;;;;;5099283;28;20016;-66
2021/09/22 09:25:42;;;;;;;1.25;0.93;;;;;;;;;;5108564;28;20008;-66
2021/09/22 09:28:16;;;;;;;2.92;0.85;;;;;;;;;;5101906;28;20059;-69
2021/09/22 09:30:45;;;;;;;2.63;1.00;;;;;;;;;;5108342;28;20497;-66
2021/09/22 09:33:11;;;;;;;1.30;0.70;;;;;;;;;;5107653;28;20039;-66
2021/09/22 09:35:37;;;;;;;1.55;0.88;;;;;;;;;;5108094;28;20034;-68
2021/09/22 09:38:02;;;;;;;1.27;0.90;;;;;;;;;;5104901;28;20024;-68
2021/09/22 09:40:36;;;;;;;1.33;0.73;;;;;;;;;;5104879;28;20184;-69
2021/09/22 09:43:04;;;;;;;0.80;0.63;;;;;;;;;;5104505;28;20238;-72
2021/09/22 09:45:33;;;;;;;1.90;0.70;;;;;;;;;;5105307;28;20080;-73
2021/09/22 09:48:04;;;;;;;1.27;0.80;;;;;;;;;;5106203;28;20045;-67
2021/09/22 09:50:31;;;;;;;1.23;0.70;;;;;;;;;;5103541;28;20024;-66
2021/09/22 09:53:00;;;;;;;2.78;1.48;;;;;;;;;;5100720;28;20032;-68
2021/09/22 09:55:26;;;;;;;0.90;0.70;;;;;;;;;;5109775;28;20036;-67
2021/09/22 09:57:54;;;;;;;1.42;0.90;;;;;;;;;;5102738;28;20462;-67
2021/09/22 10:00:43;;;;;;;1.70;1.10;;;;;;;;;;5100826;28;20032;-70
2021/09/22 10:03:09;;;;;;;1.25;0.85;;;;;;;;;;5102469;28;20035;-66
2021/09/22 10:05:35;;;;;;;2.47;0.88;;;;;;;;;;5101592;28;20028;-67
2021/09/22 10:08:01;;;;;;;1.05;0.70;;;;;;;;;;5108981;28;20023;-67
2021/09/22 10:10:28;;;;;;;0.77;0.77;;;;;;;;;;5107345;28;20115;-67
2021/09/22 10:12:55;;;;;;;1.58;0.82;;;;;;;;;;5109678;28;20447;-67
2021/09/22 10:15:21;;;;;;;4.13;1.00;;;;;;;;;;5100640;28;20615;-67
2021/09/22 10:17:48;;;;;;;1.45;1.10;;;;;;;;;;5103026;28;20059;-63
2021/09/22 10:20:16;;;;;;;2.15;0.80;;;;;;;;;;5095832;28;20368;-67
2021/09/22 10:22:42;;;;;;;2.22;1.00;;;;;;;;;;5095987;28;20036;-67
2021/09/22 10:25:08;;;;;;;5.28;1.17;;;;;;;;;;5109606;28;20029;-66
2021/09/22 10:27:35;;;;;;;2.85;1.10;;;;;;;;;;5105617;28;20067;-67
2021/09/22 10:30:06;;;;;;;4.57;1.23;;;;;;;;;;5103886;28;20550;-66
2021/09/22 10:32:48;;;;;;;2.42;1.00;;;;;;;;;;5108191;28;20051;-67
2021/09/22 10:35:26;;;;;;;1.55;1.10;;;;;;;;;;5104466;28;20028;-67
2021/09/22 10:37:53;;;;;;;1.08;0.93;;;;;;;;;;5100321;28;20024;-67
2021/09/22 10:40:20;;;;;;;1.90;1.17;;;;;;;;;;5099181;28;20054;-67
2021/09/22 10:42:46;;;;;;;2.15;1.20;;;;;;;;;;5099771;28;20064;-67
2021/09/22 10:45:12;;;;;;;2.00;1.33;;;;;;;;;;5101222;28;20380;-65
2021/09/22 10:47:39;;;;;;;1.42;1.27;;;;;;;;;;5102000;28;20028;-65
2021/09/22 10:50:05;;;;;;;1.70;1.20;;;;;;;;;;5102551;28;20037;-65
2021/09/22 10:52:37;;;;;;;3.25;1.33;;;;;;;;;;5101546;28;20024;-66
2021/09/22 10:55:06;;;;;;;1.65;1.20;;;;;;;;;;5107210;28;20039;-62
2021/09/22 10:57:32;;;;;;;1.42;1.10;;;;;;;;;;5105411;28;20023;-63
2021/09/22 11:00:13;;;;;;;4.28;1.30;;;;;;;;;;5103071;28;20031;-65
2021/09/22 11:02:55;;;;;;;2.00;1.10;;;;;;;;;;5107194;28;20039;-65
2021/09/22 11:05:27;;;;;;;1.38;1.20;;;;;;;;;;5108440;28;20020;-67
2021/09/22 11:07:53;;;;;;;1.23;1.00;;;;;;;;;;5102087;28;20032;-65
2021/09/22 11:10:36;;;;;;;4.72;1.20;;;;;;;;;;5100215;28;20120;-66
2021/09/22 11:13:23;;;;;;;1.42;1.10;;;;;;;;;;5104987;28;20407;-65
2021/09/22 11:15:56;;;;;;;1.83;1.10;;;;;;;;;;5107234;28;20403;-65
2021/09/22 11:18:23;;;;;;;2.45;1.10;;;;;;;;;;5096531;28;20020;-68
2021/09/22 11:20:53;;;;;;;2.45;1.02;;;;;;;;;;5099652;28;20089;-66
2021/09/22 11:23:21;;;;;;;1.73;1.20;;;;;;;;;;5090282;28;20028;-66
2021/09/22 11:25:47;;;;;;;2.63;1.10;;;;;;;;;;5106589;28;20097;-66
2021/09/22 11:28:13;;;;;;;2.65;1.17;;;;;;;;;;5102334;28;20040;-66
2021/09/22 11:30:40;;;;;;;4.28;1.15;;;;;;;;;;5079806;28;20036;-66
2021/09/22 11:33:06;;;;;;;1.42;1.02;;;;;;;;;;5090957;28;20462;-65
2021/09/22 11:35:32;;;;;;;2.53;1.30;;;;;;;;;;5097609;28;20111;-66
2021/09/22 11:37:59;;;;;;;1.70;1.23;;;;;;;;;;5107893;28;20093;-67
2021/09/22 11:40:33;;;;;;;1.83;1.43;;;;;;;;;;5095659;28;20074;-68
2021/09/22 11:43:01;;;;;;;2.35;1.40;;;;;;;;;;5111717;28;20305;-67
2021/09/22 11:45:35;;;;;;;2.88;1.35;;;;;;;;;;5111008;28;20024;-67
2021/09/22 11:48:01;;;;;;;2.10;1.10;;;;;;;;;;5109482;28;20116;-68
2021/09/22 11:50:37;;;;;;;3.47;1.38;;;;;;;;;;5110287;28;20035;-62
2021/09/22 11:53:07;;;;;;;2.22;1.30;;;;;;;;;;5094688;28;20028;-61
2021/09/22 11:55:33;;;;;;;1.85;1.10;;;;;;;;;;5111763;28;20777;-63
2021/09/22 11:58:04;;;;;;;1.35;0.93;;;;;;;;;;5108653;28;20024;-64
2021/09/22 12:00:30;;;;;;;1.90;1.10;;;;;;;;;;5109677;28;20497;-67
2021/09/22 12:02:56;;;;;;;3.20;1.10;;;;;;;;;;5110710;28;20031;-66
2021/09/22 12:05:22;;;;;;;2.50;1.13;;;;;;;;;;5108816;28;20019;-64
2021/09/22 12:07:53;;;;;;;2.55;1.02;;;;;;;;;;5103134;28;20019;-64
2021/09/22 12:10:19;;;;;;;2.05;1.17;;;;;;;;;;5112751;28;20072;-65
2021/09/22 12:12:46;;;;;;;4.30;1.27;;;;;;;;;;5111230;28;20437;-65
2021/09/22 12:15:13;;;;;;;3.53;1.10;;;;;;;;;;5105507;28;20032;-65
2021/09/22 12:17:41;;;;;;;1.70;1.00;;;;;;;;;;5102808;28;20287;-65
2021/09/22 12:20:14;;;;;;;2.15;1.10;;;;;;;;;;5110236;28;20015;-65
2021/09/22 12:22:41;;;;;;;3.25;1.20;;;;;;;;;;5094361;28;20026;-64
2021/09/22 12:25:08;;;;;;;1.38;1.20;;;;;;;;;;5114088;28;20196;-65
2021/09/22 12:27:34;;;;;;;2.47;1.10;;;;;;;;;;5104767;28;20039;-64
2021/09/22 12:30:03;;;;;;;2.53;1.10;;;;;;;;;;5098656;28;20024;-65
2021/09/22 12:32:30;;;;;;;2.25;1.10;;;;;;;;;;5107594;28;20036;-65
2021/09/22 12:34:57;;;;;;;1.35;0.95;;;;;;;;;;5110490;28;20482;-65
2021/09/22 12:37:24;;;;;;;1.02;0.93;;;;;;;;;;5111881;28;20486;-65
2021/09/22 12:39:52;;;;;;;1.50;1.20;;;;;;;;;;5113926;28;20024;-65
2021/09/22 12:42:18;;;;;;;2.40;1.17;;;;;;;;;;5098270;28;20039;-65
2021/09/22 12:44:53;;;;;;;2.17;1.20;;;;;;;;;;5108947;28;20042;-64
2021/09/22 12:47:19;;;;;;;2.80;1.08;;;;;;;;;;5106148;28;20031;-65
2021/09/22 12:50:04;;;;;;;1.80;1.10;;;;;;;;;;5095505;28;20047;-65
2021/09/22 12:52:30;;;;;;;2.58;1.05;;;;;;;;;;5104423;28;20068;-65
2021/09/22 12:54:56;;;;;;;1.35;1.10;;;;;;;;;;5104864;28;20036;-65
2021/09/22 12:57:22;;;;;;;2.47;1.10;;;;;;;;;;5107110;28;20019;-64
2021/09/22 12:59:48;;;;;;;2.70;1.20;;;;;;;;;;5102511;28;20059;-65
2021/09/22 13:02:26;;;;;;;3.00;1.20;;;;;;;;;;5107797;28;20514;-65
2021/09/22 13:04:52;;;;;;;1.88;1.10;;;;;;;;;;5102271;28;20028;-64
2021/09/22 13:07:22;;;;;;;2.05;1.05;;;;;;;;;;5106809;28;20515;-63
2021/09/22 13:09:48;;;;;;;1.23;1.05;;;;;;;;;;5110784;28;20024;-62
2021/09/22 13:12:30;;;;;;;1.52;1.00;;;;;;;;;;5109101;28;20034;-62
2021/09/22 13:14:56;;;;;;;2.00;1.00;;;;;;;;;;5108913;28;20047;-62
2021/09/22 13:17:22;;;;;;;2.88;1.23;;;;;;;;;;5103365;28;20024;-64
2021/09/22 13:19:48;;;;;;;1.42;1.17;;;;;;;;;;5085487;28;20027;-62
2021/09/22 13:22:14;;;;;;;2.35;1.40;;;;;;;;;;5111787;28;20413;-62
2021/09/22 13:24:40;;;;;;;2.03;1.40;;;;;;;;;;5110056;28;20375;-62
2021/09/22 13:27:06;;;;;;;3.53;1.30;;;;;;;;;;5106258;28;20031;-62
2021/09/22 13:29:33;;;;;;;2.78;1.20;;;;;;;;;;5096494;28;20063;-64
2021/09/22 13:32:05;;;;;;;3.00;1.33;;;;;;;;;;5097624;28;20050;-62
2021/09/22 13:34:32;;;;;;;1.38;1.10;;;;;;;;;;5109965;28;20097;-62
2021/09/22 13:36:58;;;;;;;2.17;1.50;;;;;;;;;;5111174;28;20106;-62
2021/09/22 13:39:24;;;;;;;2.42;1.23;;;;;;;;;;5109421;28;20027;-62
2021/09/22 13:41:51;;;;;;;1.27;1.17;;;;;;;;;;5099711;28;20427;-62
2021/09/22 13:44:17;;;;;;;3.38;1.50;;;;;;;;;;5098197;28;20048;-62
2021/09/22 13:46:45;;;;;;;1.92;1.45;;;;;;;;;;5108134;28;20134;-62
2021/09/22 13:49:11;;;;;;;2.85;1.60;;;;;;;;;;5096053;28;20058;-64
2021/09/22 13:51:41;;;;;;;2.22;1.30;;;;;;;;;;5109123;28;20093;-62
2021/09/22 13:54:07;;;;;;;3.72;1.40;;;;;;;;;;5108493;28;20047;-62
2021/09/22 13:56:33;;;;;;;3.42;1.40;;;;;;;;;;5108865;28;20058;-62
2021/09/22 13:58:59;;;;;;;3.70;1.70;;;;;;;;;;5101527;28;20055;-62
2021/09/22 14:01:25;;;;;;;3.53;1.58;;;;;;;;;;5110376;28;20542;-62
2021/09/22 14:03:51;;;;;;;2.20;1.50;;;;;;;;;;5110317;28;20107;-62
2021/09/22 14:06:17;;;;;;;3.13;1.33;;;;;;;;;;5108025;28;20028;-62
2021/09/22 14:08:43;;;;;;;4.22;1.60;;;;;;;;;;5109580;28;20038;-62
2021/09/22 14:11:09;;;;;;;4.43;1.42;;;;;;;;;;5102585;28;20024;-62
2021/09/22 14:13:35;;;;;;;3.22;1.30;;;;;;;;;;5092213;28;20112;-62
2021/09/22 14:16:02;;;;;;;2.13;1.55;;;;;;;;;;5095418;28;20047;-62
2021/09/22 14:18:28;;;;;;;2.53;1.75;;;;;;;;;;5107000;28;20046;-62
2021/09/22 14:20:57;;;;;;;3.10;1.58;;;;;;;;;;5108483;28;20064;-62
2021/09/22 14:23:23;;;;;;;2.92;1.48;;;;;;;;;;5107639;28;20022;-62
2021/09/22 14:25:49;;;;;;;2.00;1.50;;;;;;;;;;5108129;28;20106;-62
2021/09/22 14:28:17;;;;;;;4.10;1.70;;;;;;;;;;5109583;28;20047;-62
2021/09/22 14:30:43;;;;;;;3.15;1.70;;;;;;;;;;5096206;28;20034;-62
2021/09/22 14:33:09;;;;;;;2.03;1.55;;;;;;;;;;5104932;28;20474;-62
2021/09/22 14:35:36;;;;;;;2.92;1.67;;;;;;;;;;5108486;28;20383;-62
2021/09/22 14:38:03;;;;;;;4.50;1.58;;;;;;;;;;5108731;28;20027;-62
2021/09/22 14:40:30;;;;;;;1.60;1.50;;;;;;;;;;5108481;28;20040;-62
2021/09/22 14:42:56;;;;;;;3.22;1.52;;;;;;;;;;5110966;28;20016;-62